KPSM

Portsmouth International at Pease Airport

Portsmouth, New Hampshire, USA
METAR KPSM 220456Z 36008KT 10SM CLR 15/12 A2992 RMK AO2A SLP134 T01530115 402600135
Observed Flight Rules
Jun-22 @ 04:56 UTC (45 minutes ago) Visual Flight Rules
Wind Visibility Clouds
360° at 8 knots 10 miles
  • Clear skies
Temperatures Readings
Current 15°C / 59°F
Dewpoint 12°C / 54°F
Humidity 82%
Altimeter 29.92" Hg
Pressure 1013.4 hPa
Elevation 31
METAR KPSM 220456Z 36008KT 10SM CLR 15/12 A2992 RMK AO2A SLP134 T01530115 402600135
Observed Flight Rules
Jun-22 @ 04:56 UTC
(45 minutes ago)
VFR
Wind Visibility
360° at 8 knots 10 miles
Clouds
  • Clear skies
Temperature Dewpoint
15°C / 59°F 12°C / 54°F
Humidity Altimeter Pressure
82% 29.92" Hg 1013.4 hPa